Time;durP1;ratioP1;P1;durP2;ratioP2;P2;SDS_P1;SDS_P2;PMS_P1;PMS_P2;Temp;Humidity;BMP_temperature;BMP_pressure;BME280_temperature;BME280_humidity;BME280_pressure;Samples;Min_cycle;Max_cycle;Signal;HPM_P1;HPM_P2
2022/08/18 00:01:23;;;;;;;11.05;6.65;;;;;;;16.59;100.00;101477.84;5053270;28;20069;-78
2022/08/18 00:03:49;;;;;;;12.20;5.70;;;;;;;16.60;100.00;101490.25;5053326;28;20035;-77
2022/08/18 00:06:16;;;;;;;10.27;5.70;;;;;;;16.60;100.00;101496.50;5053571;28;20033;-77
2022/08/18 00:08:41;;;;;;;11.65;5.60;;;;;;;16.57;100.00;101486.91;5053359;28;20470;-77
2022/08/18 00:11:07;;;;;;;11.70;6.00;;;;;;;16.54;100.00;101483.69;5035322;28;20036;-77
2022/08/18 00:13:33;;;;;;;12.85;6.15;;;;;;;16.52;100.00;101489.22;5051290;28;20486;-77
2022/08/18 00:15:59;;;;;;;9.38;6.20;;;;;;;16.51;100.00;101484.00;5052915;28;20478;-77
2022/08/18 00:18:24;;;;;;;11.40;6.13;;;;;;;16.51;100.00;101490.25;5053381;28;20086;-76
2022/08/18 00:20:49;;;;;;;11.05;5.93;;;;;;;16.52;100.00;101486.53;5053330;28;20036;-76
2022/08/18 00:23:15;;;;;;;9.63;6.18;;;;;;;16.53;100.00;101498.13;5052459;28;20037;-76
2022/08/18 00:25:41;;;;;;;11.57;5.97;;;;;;;16.52;100.00;101496.44;5053021;28;20029;-77
2022/08/18 00:28:06;;;;;;;15.48;6.65;;;;;;;16.51;100.00;101486.69;5051972;28;20025;-77
2022/08/18 00:30:32;;;;;;;12.35;6.55;;;;;;;16.49;100.00;101470.75;5052847;28;20025;-75
2022/08/18 00:32:59;;;;;;;12.15;6.72;;;;;;;16.50;100.00;101474.28;5052881;28;20057;-76
2022/08/18 00:35:29;;;;;;;10.63;6.45;;;;;;;16.50;100.00;101467.06;5052732;28;20446;-77
2022/08/18 00:37:58;;;;;;;13.88;6.63;;;;;;;16.47;100.00;101462.00;5053422;28;20029;-76
2022/08/18 00:40:47;;;;;;;12.95;6.50;;;;;;;16.40;100.00;101464.50;5052515;28;20538;-79
2022/08/18 00:43:39;;;;;;;11.30;6.85;;;;;;;16.32;100.00;101461.78;5053450;28;20040;-75
2022/08/18 00:46:17;;;;;;;10.00;6.30;;;;;;;16.25;100.00;101468.81;5052747;28;20045;-76
2022/08/18 00:48:42;;;;;;;8.98;6.07;;;;;;;16.17;100.00;101477.66;5052059;28;20075;-76
2022/08/18 00:51:19;;;;;;;10.05;6.35;;;;;;;16.07;100.00;101479.63;5052764;28;20515;-76
2022/08/18 00:53:57;;;;;;;11.57;6.50;;;;;;;15.99;100.00;101476.91;5052595;28;20466;-76
2022/08/18 00:56:34;;;;;;;12.25;6.80;;;;;;;15.96;100.00;101477.19;5052796;28;20466;-76
2022/08/18 00:59:16;;;;;;;9.35;6.47;;;;;;;15.92;100.00;101479.38;5053093;28;20029;-76
2022/08/18 01:01:45;;;;;;;13.15;7.30;;;;;;;15.88;100.00;101486.06;5052959;28;20025;-76
2022/08/18 01:04:25;;;;;;;11.38;6.80;;;;;;;15.85;100.00;101484.56;5052438;28;20383;-76
2022/08/18 01:06:59;;;;;;;12.10;6.93;;;;;;;15.83;100.00;101481.16;5052760;28;20032;-76
2022/08/18 01:09:25;;;;;;;11.50;7.10;;;;;;;15.79;100.00;101485.16;5053113;28;20044;-76
2022/08/18 01:11:50;;;;;;;11.60;7.22;;;;;;;15.75;100.00;101485.59;5051177;28;20033;-76
2022/08/18 01:14:17;;;;;;;9.38;6.93;;;;;;;15.71;100.00;101481.56;5051157;28;20033;-76
2022/08/18 01:22:29;;;;;;;10.23;7.18;;;;;;;15.65;100.00;101483.84;5052624;28;20106;-76
2022/08/18 01:27:40;;;;;;;14.38;7.60;;;;;;;15.63;100.00;101485.88;5056563;28;19915;-76
2022/08/18 01:30:10;;;;;;;12.82;8.40;;;;;;;15.60;100.00;101479.97;5056943;28;20036;-76
2022/08/18 01:32:38;;;;;;;11.80;7.97;;;;;;;15.56;100.00;101476.75;5055774;28;20171;-76
2022/08/18 01:35:07;;;;;;;10.18;7.85;;;;;;;15.54;100.00;101470.72;5056062;28;20036;-75
2022/08/18 01:37:33;;;;;;;11.55;8.38;;;;;;;15.50;100.00;101464.81;5055984;28;20194;-76
2022/08/18 01:39:58;;;;;;;17.25;8.98;;;;;;;15.52;100.00;101461.97;5056512;28;20482;-76
2022/08/18 01:42:24;;;;;;;14.70;9.52;;;;;;;15.56;100.00;101471.41;5055982;28;20119;-76
2022/08/18 01:44:52;;;;;;;13.20;9.32;;;;;;;15.58;100.00;101474.75;5055559;28;20044;-76
2022/08/18 01:47:17;;;;;;;12.13;8.90;;;;;;;15.58;100.00;101474.75;5056319;28;20040;-75
2022/08/18 01:49:43;;;;;;;12.18;8.30;;;;;;;15.51;100.00;101477.22;5055753;28;20028;-76
2022/08/18 01:52:12;;;;;;;12.48;7.68;;;;;;;15.44;100.00;101481.53;5055643;28;20055;-76
2022/08/18 01:54:39;;;;;;;11.88;8.32;;;;;;;15.38;100.00;101479.47;5055569;28;20078;-77
2022/08/18 01:57:05;;;;;;;12.02;8.57;;;;;;;15.35;100.00;101482.47;5055637;28;20048;-76
2022/08/18 01:59:31;;;;;;;11.23;8.35;;;;;;;15.34;100.00;101486.97;5055926;28;20120;-76
2022/08/18 02:01:59;;;;;;;12.88;9.73;;;;;;;15.35;100.00;101490.50;5055589;28;20378;-75
2022/08/18 02:04:32;;;;;;;13.70;9.27;;;;;;;15.37;100.00;101493.88;5055189;28;20549;-75
2022/08/18 02:06:57;;;;;;;12.45;9.85;;;;;;;15.40;100.00;101495.41;5055690;28;20025;-75
2022/08/18 02:09:23;;;;;;;15.98;10.10;;;;;;;15.43;100.00;101492.41;5054348;28;20037;-75
2022/08/18 02:11:48;;;;;;;13.20;10.48;;;;;;;15.45;100.00;101496.63;5055172;28;20036;-75
2022/08/18 02:14:13;;;;;;;14.60;10.50;;;;;;;15.46;100.00;101492.94;5055065;28;20025;-76
2022/08/18 02:16:39;;;;;;;20.55;11.07;;;;;;;15.49;100.00;101491.78;5055301;28;20463;-75
2022/08/18 02:19:04;;;;;;;13.32;10.07;;;;;;;15.48;100.00;101490.97;5054895;28;20490;-76
2022/08/18 02:21:29;;;;;;;14.82;10.07;;;;;;;15.46;100.00;101497.47;5054903;28;20025;-76
2022/08/18 02:23:55;;;;;;;11.13;8.95;;;;;;;15.41;100.00;101499.78;5054710;28;20501;-76
2022/08/18 02:26:22;;;;;;;13.20;9.38;;;;;;;15.37;100.00;101509.94;5055694;28;20463;-78
2022/08/18 02:28:47;;;;;;;14.85;9.52;;;;;;;15.33;100.00;101501.38;5055783;28;20033;-78
2022/08/18 02:31:16;;;;;;;15.13;9.93;;;;;;;15.29;100.00;101493.81;5054750;28;20127;-78
2022/08/18 02:33:42;;;;;;;18.52;10.93;;;;;;;15.25;100.00;101495.94;5054865;28;20032;-77
2022/08/18 02:36:08;;;;;;;18.67;11.38;;;;;;;15.25;100.00;101495.94;5054577;28;20029;-76
2022/08/18 02:38:33;;;;;;;16.35;10.10;;;;;;;15.24;100.00;101499.63;5053618;28;20470;-77
2022/08/18 02:41:05;;;;;;;12.52;9.32;;;;;;;15.18;100.00;101499.41;5053231;28;20077;-76
2022/08/18 02:43:31;;;;;;;14.20;10.27;;;;;;;15.13;100.00;101502.53;5055012;28;20487;-77
2022/08/18 02:45:57;;;;;;;15.00;9.90;;;;;;;15.06;100.00;101498.78;5055159;28;20060;-77
2022/08/18 02:48:34;;;;;;;13.10;9.05;;;;;;;15.04;100.00;101515.00;5054746;28;20577;-76
2022/08/18 02:51:12;;;;;;;12.80;9.50;;;;;;;15.03;100.00;101515.16;5055394;28;20037;-77
2022/08/18 02:53:39;;;;;;;20.60;10.13;;;;;;;14.98;100.00;101507.59;5055423;28;20528;-76
2022/08/18 02:58:42;;;;;;;14.70;11.02;;;;;;;14.94;100.00;101511.53;5054402;28;20123;-78
2022/08/18 03:01:07;;;;;;;15.93;11.98;;;;;;;14.97;100.00;101508.56;5054340;28;20025;-77
2022/08/18 03:03:36;;;;;;;19.85;12.60;;;;;;;14.99;100.00;101518.16;5054523;28;20044;-77
2022/08/18 03:06:01;;;;;;;19.27;13.52;;;;;;;15.02;100.00;101519.69;5054044;28;20060;-76
2022/08/18 03:08:27;;;;;;;16.75;12.38;;;;;;;15.06;100.00;101522.91;5055233;28;20472;-77
2022/08/18 03:10:53;;;;;;;26.48;13.18;;;;;;;15.12;100.00;101533.00;5054390;28;20025;-77
2022/08/18 03:13:19;;;;;;;18.00;12.52;;;;;;;15.14;100.00;101526.50;5054261;28;20064;-77
2022/08/18 03:15:45;;;;;;;16.42;12.77;;;;;;;15.21;100.00;101528.56;5054235;28;20044;-79
2022/08/18 03:18:12;;;;;;;18.08;12.70;;;;;;;15.27;100.00;101531.50;5054310;28;20083;-77
2022/08/18 03:20:38;;;;;;;19.38;13.82;;;;;;;15.37;100.00;101536.75;5053953;28;20489;-76
2022/08/18 03:23:04;;;;;;;20.55;14.07;;;;;;;15.44;100.00;101532.47;5054346;28;20044;-76
2022/08/18 03:25:30;;;;;;;25.08;14.82;;;;;;;15.50;100.00;101531.84;5054087;28;20064;-78
2022/08/18 03:27:55;;;;;;;22.70;14.30;;;;;;;15.56;100.00;101525.03;5054069;28;20543;-77
2022/08/18 03:30:22;;;;;;;16.90;13.40;;;;;;;15.59;100.00;101524.72;5054143;28;20024;-77
2022/08/18 03:32:48;;;;;;;21.65;13.73;;;;;;;15.62;100.00;101535.13;5053608;28;20025;-77
2022/08/18 03:35:14;;;;;;;19.70;14.20;;;;;;;15.65;100.00;101534.00;5053888;28;20056;-77
2022/08/18 03:37:39;;;;;;;23.77;15.32;;;;;;;15.70;100.00;101534.34;5053638;28;20518;-74
2022/08/18 03:40:05;;;;;;;34.20;15.05;;;;;;;15.75;100.00;101528.53;5053699;28;20033;-74
2022/08/18 03:42:31;;;;;;;23.95;15.40;;;;;;;15.79;100.00;101522.72;5053753;28;20490;-76
2022/08/18 03:44:57;;;;;;;24.25;15.50;;;;;;;15.86;100.00;101528.31;5053176;28;20045;-76
2022/08/18 03:47:22;;;;;;;28.02;16.88;;;;;;;15.94;100.00;101530.19;5053322;28;20132;-76
2022/08/18 03:49:48;;;;;;;28.98;15.57;;;;;;;16.00;100.00;101530.44;5053402;28;20021;-76
2022/08/18 03:52:13;;;;;;;25.15;15.75;;;;;;;16.06;100.00;101534.28;5054053;28;20041;-76
2022/08/18 03:54:39;;;;;;;23.23;15.13;;;;;;;16.08;100.00;101529.63;5053688;28;20025;-76
2022/08/18 03:57:07;;;;;;;21.73;14.93;;;;;;;16.08;100.00;101529.63;5053479;28;20025;-75
2022/08/18 03:59:33;;;;;;;23.20;14.90;;;;;;;16.11;100.00;101528.44;5053448;28;20041;-75
2022/08/18 04:02:01;;;;;;;19.67;14.52;;;;;;;16.11;100.00;101523.09;5053899;28;20071;-75
2022/08/18 04:04:27;;;;;;;21.88;13.57;;;;;;;16.11;100.00;101523.94;5053200;28;20044;-75
2022/08/18 04:06:58;;;;;;;21.35;13.93;;;;;;;16.12;100.00;101520.28;5053349;28;20055;-75
2022/08/18 04:09:25;;;;;;;;;;;;;;;16.11;100.00;101518.56;5054279;28;20454;-75
2022/08/18 04:11:51;;;;;;;20.55;13.85;;;;;;;16.10;100.00;101527.63;5053209;28;20010;-75
2022/08/18 04:14:19;;;;;;;24.35;15.35;;;;;;;16.06;100.00;101526.25;5052983;28;20052;-75
2022/08/18 04:16:45;;;;;;;23.63;14.30;;;;;;;16.06;100.00;101520.88;5052937;28;20437;-75
2022/08/18 04:19:12;;;;;;;22.45;14.27;;;;;;;16.09;100.00;101525.09;5053921;28;20037;-75
2022/08/18 04:21:40;;;;;;;26.70;15.40;;;;;;;16.08;100.00;101521.59;5052792;28;20468;-75
2022/08/18 04:24:07;;;;;;;27.90;15.25;;;;;;;16.09;100.00;101519.72;5053108;28;20025;-75
2022/08/18 04:26:45;;;;;;;21.10;14.25;;;;;;;16.09;100.00;101519.72;5053077;28;20040;-75
2022/08/18 04:29:11;;;;;;;22.90;13.52;;;;;;;16.07;100.00;101513.69;5053694;28;20070;-75
2022/08/18 04:31:37;;;;;;;22.08;13.30;;;;;;;16.02;100.00;101527.59;5052949;28;20029;-75
2022/08/18 04:34:03;;;;;;;22.42;13.75;;;;;;;15.98;100.00;101520.84;5053224;28;20566;-75
2022/08/18 04:36:30;;;;;;;17.95;12.35;;;;;;;15.91;100.00;101519.78;5052384;28;20354;-75
2022/08/18 04:38:57;;;;;;;17.88;12.27;;;;;;;15.84;100.00;101519.59;5053113;28;20040;-75
2022/08/18 04:41:25;;;;;;;17.25;12.10;;;;;;;15.76;100.00;101520.31;5052843;28;20033;-75
2022/08/18 04:43:51;;;;;;;19.48;12.95;;;;;;;15.72;100.00;101518.97;5052801;28;20047;-75
2022/08/18 04:46:17;;;;;;;20.00;12.80;;;;;;;15.66;100.00;101519.59;5053166;28;20053;-76
2022/08/18 04:48:42;;;;;;;17.55;12.20;;;;;;;15.58;100.00;101514.16;5052903;28;20029;-75
2022/08/18 04:51:12;;;;;;;16.05;11.75;;;;;;;15.52;100.00;101511.09;5053215;28;20374;-75
2022/08/18 04:53:45;;;;;;;18.57;12.80;;;;;;;15.49;100.00;101511.38;5053332;28;20025;-75
2022/08/18 04:56:24;;;;;;;21.70;12.70;;;;;;;15.45;100.00;101510.03;5052822;28;20025;-76
2022/08/18 04:58:54;;;;;;;23.58;13.18;;;;;;;15.44;100.00;101512.88;5053263;28;20021;-74
2022/08/18 05:01:22;;;;;;;18.83;13.60;;;;;;;15.40;100.00;101503.44;5055127;28;20479;-74
2022/08/18 05:03:51;;;;;;;21.15;14.48;;;;;;;15.40;100.00;101515.00;5056774;28;20083;-74
2022/08/18 05:06:18;;;;;;;32.33;16.63;;;;;;;15.42;100.00;101515.72;5057164;28;20036;-74
2022/08/18 05:08:47;;;;;;;27.58;17.23;;;;;;;15.49;100.00;101518.59;5056742;28;20478;-76
2022/08/18 05:11:14;;;;;;;30.05;18.05;;;;;;;15.55;100.00;101517.16;5056516;28;20029;-74
2022/08/18 05:13:39;;;;;;;29.65;17.20;;;;;;;15.58;100.00;101516.84;5055167;28;20474;-74
2022/08/18 05:16:05;;;;;;;36.47;18.75;;;;;;;15.60;100.00;101514.81;5056256;28;20048;-73
2022/08/18 05:18:32;;;;;;;28.35;17.45;;;;;;;15.62;100.00;101516.38;5056821;28;20033;-73
2022/08/18 05:20:58;;;;;;;25.95;16.67;;;;;;;15.64;100.00;101510.84;5056593;28;20060;-77
2022/08/18 05:23:25;;;;;;;29.77;17.13;;;;;;;15.67;100.00;101507.84;5056163;28;20037;-77
2022/08/18 05:26:00;;;;;;;29.73;16.88;;;;;;;15.66;100.00;101509.69;5056385;28;20044;-75
2022/08/18 05:28:25;;;;;;;25.25;16.88;;;;;;;15.66;100.00;101516.91;5056843;28;20071;-76
2022/08/18 05:30:51;;;;;;;26.80;16.65;;;;;;;15.63;100.00;101512.69;5056223;28;20057;-74
2022/08/18 05:33:16;;;;;;;28.50;17.98;;;;;;;15.67;100.00;101521.25;5055868;28;20024;-73
2022/08/18 05:35:49;;;;;;;25.17;16.50;;;;;;;15.68;100.00;101517.59;5056565;28;20029;-74
2022/08/18 05:38:31;;;;;;;28.83;17.92;;;;;;;15.69;100.00;101521.97;5056576;28;20076;-76
2022/08/18 05:41:06;;;;;;;26.20;16.92;;;;;;;15.69;100.00;101524.66;5055781;28;20040;-74
2022/08/18 05:43:32;;;;;;;26.98;17.25;;;;;;;15.68;100.00;101518.41;5056127;28;20075;-75
2022/08/18 05:46:01;;;;;;;28.95;17.33;;;;;;;15.72;100.00;101526.16;5055780;28;20049;-76
2022/08/18 05:48:26;;;;;;;29.58;18.58;;;;;;;15.75;100.00;101528.53;5056242;28;20064;-71
2022/08/18 05:50:53;;;;;;;28.40;19.13;;;;;;;15.79;100.00;101527.25;5055646;28;20505;-72
2022/08/18 05:56:45;;;;;;;28.15;18.42;;;;;;;15.82;100.00;101530.47;5054211;28;20132;-73
2022/08/18 05:58:54;;;;;;;33.65;19.30;;;;;;;15.89;100.00;101527.16;5055432;28;20040;-73
2022/08/18 06:01:37;;;;;;;29.00;19.02;;;;;;;15.92;100.00;101533.03;5055400;28;20037;-75
2022/08/18 06:04:59;;;;;;;29.00;17.38;;;;;;;15.97;100.00;101525.38;5055534;28;20052;-77
2022/08/18 06:07:53;;;;;;;27.52;17.25;;;;;;;16.04;100.00;101522.88;4974234;28;20054;-76
2022/08/18 06:10:19;;;;;;;31.50;18.60;;;;;;;16.11;100.00;101523.94;4970011;28;20078;-74
2022/08/18 06:12:50;;;;;;;39.22;19.05;;;;;;;16.19;100.00;101521.28;5037249;28;20423;-76
2022/08/18 06:15:15;;;;;;;;;;;;;;;16.27;100.00;101516.97;5054320;28;20485;-77
2022/08/18 06:17:59;;;;;;;33.58;19.30;;;;;;;16.34;100.00;101513.47;5054982;28;20011;-75
2022/08/18 06:20:33;;;;;;;26.65;17.27;;;;;;;16.42;100.00;101518.06;5055438;28;20025;-77
2022/08/18 06:23:26;;;;;;;29.80;17.42;;;;;;;16.51;100.00;101516.25;5053837;28;20458;-77
2022/08/18 06:26:12;;;;;;;27.80;17.00;;;;;;;16.57;100.00;101513.75;5054789;28;20513;-76
2022/08/18 06:28:59;;;;;;;25.35;15.40;;;;;;;16.65;100.00;101520.16;5053752;28;20021;-76
2022/08/18 06:31:40;;;;;;;23.23;15.23;;;;;;;16.72;100.00;101523.91;5054775;28;20025;-76
2022/08/18 06:34:30;;;;;;;23.08;14.73;;;;;;;16.81;100.00;101527.44;5054948;28;20057;-75
2022/08/18 06:37:28;;;;;;;22.50;13.75;;;;;;;16.87;100.00;101522.28;5055089;28;20056;-76
2022/08/18 06:39:55;;;;;;;26.55;13.88;;;;;;;16.92;100.00;101521.78;5052350;28;20407;-76
2022/08/18 06:42:29;;;;;;;22.85;14.48;;;;;;;17.00;100.00;101521.78;5054559;28;20068;-76
2022/08/18 06:44:59;;;;;;;36.47;21.70;;;;;;;17.07;100.00;101527.38;5054440;28;20122;-77
2022/08/18 06:47:26;;;;;;;28.70;17.13;;;;;;;17.14;100.00;101524.84;5054565;28;20033;-77
2022/08/18 06:50:07;;;;;;;26.58;14.52;;;;;;;17.25;100.00;101530.75;5054150;28;20037;-76
2022/08/18 06:52:37;;;;;;;21.27;12.63;;;;;;;17.41;100.00;101538.00;5054421;28;20025;-76
2022/08/18 06:55:07;;;;;;;18.20;11.98;;;;;;;17.65;100.00;101530.94;5054681;28;20032;-78
2022/08/18 06:57:53;;;;;;;19.30;9.80;;;;;;;17.90;100.00;101536.31;5053119;28;20097;-77
2022/08/18 07:00:26;;;;;;;13.52;8.20;;;;;;;17.94;100.00;101538.53;5054744;28;20114;-77
2022/08/18 07:03:06;;;;;;;12.65;6.10;;;;;;;17.92;100.00;101543.22;5054285;28;20033;-77
2022/08/18 07:05:34;;;;;;;12.55;5.28;;;;;;;17.78;100.00;101542.03;5052986;28;20460;-78
2022/08/18 07:08:05;;;;;;;9.70;5.38;;;;;;;17.78;100.00;101550.09;5054173;28;20025;-78
2022/08/18 07:10:36;;;;;;;;;;;;;;;17.80;100.00;101556.16;5054908;28;20036;-78
2022/08/18 07:13:19;;;;;;;5.80;4.50;;;;;;;17.94;100.00;101557.38;5054304;28;20351;-78
2022/08/18 07:15:47;;;;;;;10.43;4.70;;;;;;;18.24;100.00;101556.78;5054234;28;20025;-77
2022/08/18 07:18:19;;;;;;;9.38;3.65;;;;;;;18.33;100.00;101561.13;5053523;28;20385;-77
2022/08/18 07:20:57;;;;;;;4.82;3.50;;;;;;;18.41;100.00;101566.50;5054240;28;20495;-79
2022/08/18 07:23:27;;;;;;;6.30;2.88;;;;;;;18.38;100.00;101563.34;5053072;28;20455;-79
2022/08/18 07:26:04;;;;;;;9.95;3.20;;;;;;;18.33;100.00;101563.81;5053855;28;20501;-78
2022/08/18 07:28:37;;;;;;;5.70;3.00;;;;;;;18.32;100.00;101568.38;5053915;28;20035;-78
2022/08/18 07:31:11;;;;;;;8.32;3.20;;;;;;;18.32;100.00;101564.84;5053765;28;20033;-78
2022/08/18 07:33:40;;;;;;;4.90;2.60;;;;;;;18.33;100.00;101561.13;5053830;28;20032;-79
2022/08/18 07:36:08;;;;;;;5.10;3.13;;;;;;;18.32;100.00;101565.69;5052400;28;20033;-78
2022/08/18 07:38:44;;;;;;;8.52;2.70;;;;;;;18.43;100.00;101558.25;5053707;28;20394;-78
2022/08/18 07:41:19;;;;;;;6.40;3.00;;;;;;;18.53;100.00;101555.38;5053732;28;20032;-77
2022/08/18 07:44:15;;;;;;;6.35;3.05;;;;;;;18.66;100.00;101559.19;5054440;28;20028;-77
2022/08/18 07:47:05;;;;;;;6.85;2.63;;;;;;;18.81;100.00;101559.28;5053769;28;20513;-76
2022/08/18 07:49:35;;;;;;;4.53;2.80;;;;;;;18.99;100.00;101558.22;5044090;28;20072;-76
2022/08/18 07:52:16;;;;;;;4.65;2.60;;;;;;;19.24;100.00;101561.56;5053535;28;20021;-77
2022/08/18 07:55:03;;;;;;;5.03;3.05;;;;;;;19.48;100.00;101565.97;5053963;28;20455;-76
2022/08/18 07:57:34;;;;;;;5.85;2.65;;;;;;;19.84;100.00;101573.47;5053543;28;20079;-77
2022/08/18 08:00:08;;;;;;;;;;;;;;;20.12;100.00;101567.44;5053700;28;20036;-76
2022/08/18 08:02:38;;;;;;;3.13;2.00;;;;;;;20.43;100.00;101577.25;5053190;28;20392;-76
2022/08/18 08:05:55;;;;;;;5.05;2.40;;;;;;;20.59;100.00;101573.53;5053951;28;20028;-76
2022/08/18 08:08:45;;;;;;;3.58;1.60;;;;;;;20.68;100.00;101575.13;5008880;28;20064;-77
2022/08/18 08:11:44;;;;;;;3.28;1.50;;;;;;;21.17;100.00;101572.78;5052213;28;20021;-77
2022/08/18 08:14:21;;;;;;;3.17;1.50;;;;;;;21.49;100.00;101576.88;5053181;28;20544;-78
2022/08/18 08:17:22;;;;;;;5.00;1.60;;;;;;;21.59;100.00;101571.16;5053465;28;20052;-78
2022/08/18 08:20:01;;;;;;;3.58;1.80;;;;;;;21.47;100.00;101570.81;5053784;28;20155;-76
2022/08/18 08:22:36;;;;;;;2.92;1.58;;;;;;;21.31;100.00;101570.03;5053620;28;20463;-76
2022/08/18 08:25:20;;;;;;;4.80;1.60;;;;;;;21.08;100.00;101572.91;5052870;28;20017;-77
2022/08/18 08:28:21;;;;;;;3.75;1.75;;;;;;;21.00;100.00;101577.59;5053213;28;20082;-77
2022/08/18 08:31:03;;;;;;;6.80;1.60;;;;;;;20.93;100.00;101566.72;5053289;28;20485;-76
2022/08/18 08:33:49;;;;;;;3.78;1.30;;;;;;;20.83;100.00;101572.41;5053154;28;20021;-79
2022/08/18 08:36:24;;;;;;;8.52;1.70;;;;;;;20.69;100.00;101568.72;5052533;28;20040;-73
2022/08/18 08:39:04;;;;;;;5.03;1.73;;;;;;;20.60;100.00;101565.22;5053484;28;20074;-75
2022/08/18 08:41:49;;;;;;;2.53;1.40;;;;;;;20.63;100.00;101569.44;5053338;28;20096;-76
2022/08/18 08:44:24;;;;;;;2.65;1.70;;;;;;;20.64;100.00;101562.97;5053186;28;20037;-75
2022/08/18 08:47:04;;;;;;;6.40;1.70;;;;;;;20.63;100.00;101560.47;5052850;28;20494;-76
2022/08/18 08:49:48;;;;;;;4.75;1.95;;;;;;;20.63;100.00;101561.31;5053237;28;20028;-76
2022/08/18 08:52:28;;;;;;;2.80;1.60;;;;;;;20.62;100.00;101565.03;5053004;28;20033;-76
2022/08/18 08:55:13;;;;;;;4.10;1.50;;;;;;;20.82;100.00;101570.72;5052842;28;20029;-77
2022/08/18 08:57:45;;;;;;;4.05;1.65;;;;;;;21.24;100.00;101558.31;5053243;28;20025;-77
2022/08/18 09:00:13;;;;;;;3.58;1.40;;;;;;;21.48;100.00;101569.75;5034835;28;20120;-77
2022/08/18 09:03:00;;;;;;;4.13;1.50;;;;;;;21.54;100.00;101562.78;5052648;28;20039;-77
2022/08/18 09:05:33;;;;;;;3.00;1.42;;;;;;;21.48;99.13;101558.94;5052988;28;20107;-75
2022/08/18 09:08:23;;;;;;;6.15;1.50;;;;;;;21.45;99.93;101554.78;5052741;28;20486;-77
2022/08/18 09:10:56;;;;;;;3.97;1.45;;;;;;;21.56;99.85;101558.84;5053019;28;20083;-76
2022/08/18 09:13:46;;;;;;;6.63;1.50;;;;;;;21.88;100.00;101561.19;5052607;28;20037;-77
2022/08/18 09:16:38;;;;;;;4.18;1.42;;;;;;;22.42;97.72;101556.97;5052695;28;20036;-76
2022/08/18 09:19:22;;;;;;;4.38;1.40;;;;;;;22.79;91.82;101563.00;5052686;28;20029;-77
2022/08/18 09:21:59;;;;;;;6.97;1.73;;;;;;;23.42;89.15;101560.03;5052941;28;20029;-76
2022/08/18 09:24:37;;;;;;;6.35;1.35;;;;;;;23.86;83.60;101565.97;5051073;28;20029;-76
2022/08/18 09:27:03;;;;;;;5.03;1.60;;;;;;;24.97;81.05;101569.63;5052571;28;20029;-75
2022/08/18 09:29:37;;;;;;;2.35;1.30;;;;;;;26.94;70.01;101551.06;5052532;28;20036;-76
2022/08/18 09:32:17;;;;;;;3.05;1.40;;;;;;;28.47;60.36;101561.34;5052400;28;20111;-75
2022/08/18 09:35:09;;;;;;;5.47;1.65;;;;;;;29.12;57.87;101562.06;5052414;28;20082;-76
2022/08/18 09:44:08;;;;;;;4.22;1.35;;;;;;;27.62;58.79;101549.84;5052694;28;20047;-75
2022/08/18 09:46:56;;;;;;;4.32;1.35;;;;;;;27.70;58.41;101558.78;5053558;28;20042;-75
2022/08/18 09:49:21;;;;;;;3.65;1.50;;;;;;;26.92;65.00;101550.47;5056625;28;20182;-75
2022/08/18 09:51:58;;;;;;;6.15;1.90;;;;;;;27.92;65.54;101559.84;5055892;28;20055;-77
2022/08/18 09:54:30;;;;;;;3.80;1.50;;;;;;;28.85;57.66;101559.94;5054842;28;20043;-73
2022/08/18 09:57:18;;;;;;;6.68;1.50;;;;;;;28.25;57.56;101560.34;5055611;28;20463;-73
2022/08/18 09:59:43;;;;;;;5.22;1.65;;;;;;;27.33;60.68;101554.31;5055777;28;20029;-73
2022/08/18 10:02:11;;;;;;;8.60;2.08;;;;;;;26.48;61.20;101556.03;5055912;28;20492;-73
2022/08/18 10:04:47;;;;;;;5.95;2.20;;;;;;;25.62;66.83;101550.38;5055541;28;20029;-75
2022/08/18 10:07:28;;;;;;;7.55;1.83;;;;;;;25.48;67.82;101552.38;5054425;28;20467;-73
2022/08/18 10:09:58;;;;;;;7.18;1.95;;;;;;;24.96;71.89;101549.75;5055570;28;20025;-72
2022/08/18 10:12:42;;;;;;;9.75;2.22;;;;;;;24.72;75.04;101545.91;5055410;28;20491;-73
2022/08/18 10:15:29;;;;;;;8.10;1.90;;;;;;;25.13;71.42;101543.78;5055754;28;20478;-73
2022/08/18 10:18:19;;;;;;;5.32;2.10;;;;;;;25.84;67.95;101539.91;5055372;28;20083;-73
2022/08/18 10:21:09;;;;;;;7.03;2.30;;;;;;;25.83;68.59;101538.22;5054998;28;20059;-73
2022/08/18 10:23:52;;;;;;;6.35;2.03;;;;;;;25.79;67.90;101537.00;5055500;28;20041;-73
2022/08/18 10:26:29;;;;;;;5.78;1.88;;;;;;;25.69;68.26;101536.69;5055401;28;20481;-74
2022/08/18 10:28:58;;;;;;;5.53;1.92;;;;;;;26.57;65.05;101537.44;5055229;28;20021;-74
2022/08/18 10:31:25;;;;;;;6.95;2.10;;;;;;;28.07;54.21;101544.91;5055428;28;20036;-73
2022/08/18 10:33:58;;;;;;;5.38;2.00;;;;;;;28.72;52.89;101559.41;5054006;28;20047;-73
2022/08/18 10:36:54;;;;;;;6.25;1.80;;;;;;;28.03;58.53;101549.19;5055690;28;20033;-74
2022/08/18 10:39:37;;;;;;;5.63;1.90;;;;;;;28.38;53.70;101540.06;5055674;28;20075;-73
2022/08/18 10:42:17;;;;;;;6.88;1.70;;;;;;;28.94;53.60;101535.72;5055144;28;20460;-72
2022/08/18 10:44:49;;;;;;;5.97;1.90;;;;;;;27.62;55.09;101540.81;5055341;28;20052;-75
2022/08/18 10:47:29;;;;;;;8.65;2.42;;;;;;;26.20;63.54;101530.13;5054641;28;20126;-74
2022/08/18 10:49:56;;;;;;;11.35;2.30;;;;;;;25.54;65.92;101531.56;5054958;28;20094;-74
2022/08/18 10:52:58;;;;;;;6.65;2.28;;;;;;;26.24;65.68;101533.22;5054859;28;20029;-73
2022/08/18 10:55:45;;;;;;;6.95;2.10;;;;;;;28.08;59.83;101532.88;5055293;28;20025;-74
2022/08/18 10:58:31;;;;;;;6.68;1.92;;;;;;;29.67;50.96;101524.94;5053868;28;20056;-74
2022/08/18 11:01:28;;;;;;;7.55;1.70;;;;;;;30.84;48.00;101532.22;5054539;28;20446;-74
2022/08/18 11:03:59;;;;;;;7.55;1.90;;;;;;;31.55;45.02;101541.44;4968498;28;20041;-75
2022/08/18 11:06:25;;;;;;;3.65;1.52;;;;;;;31.55;44.46;101534.03;5054812;28;20107;-76
2022/08/18 11:08:57;;;;;;;4.78;1.88;;;;;;;31.45;41.14;101528.41;5055164;28;20024;-74
2022/08/18 11:11:29;;;;;;;4.82;1.70;;;;;;;31.65;41.72;101530.53;5054668;28;20024;-73
2022/08/18 11:14:22;;;;;;;4.82;2.00;;;;;;;31.96;45.86;101531.56;5054308;28;20451;-74
2022/08/18 11:17:15;;;;;;;4.88;1.80;;;;;;;31.73;40.22;101518.22;5053986;28;20029;-73
2022/08/18 11:19:43;;;;;;;7.00;1.80;;;;;;;29.70;46.76;101515.38;5054193;28;20028;-73
2022/08/18 11:22:30;;;;;;;11.60;2.03;;;;;;;28.04;50.43;101523.50;5053945;28;20040;-74
2022/08/18 11:24:56;;;;;;;5.43;2.00;;;;;;;26.73;53.88;101516.91;5053938;28;20082;-73
2022/08/18 11:27:32;;;;;;;9.73;2.38;;;;;;;25.92;58.05;101511.53;5053684;28;20339;-73
2022/08/18 11:30:00;;;;;;;10.95;2.63;;;;;;;25.48;63.28;101518.84;5053800;28;20032;-73
2022/08/18 11:32:36;;;;;;;3.95;1.80;;;;;;;25.48;67.24;101518.84;5053401;28;20060;-73
2022/08/18 11:35:15;;;;;;;6.70;1.70;;;;;;;25.76;58.75;101523.81;5053876;28;20037;-73
2022/08/18 11:37:40;;;;;;;3.03;1.65;;;;;;;25.77;60.97;101517.31;5052723;28;20429;-72
2022/08/18 11:40:25;;;;;;;3.47;1.90;;;;;;;27.16;58.04;101513.16;5053704;28;20020;-72
2022/08/18 11:42:58;;;;;;;6.47;1.90;;;;;;;27.64;56.30;101514.06;5053727;28;20029;-76
2022/08/18 11:45:28;;;;;;;6.07;2.00;;;;;;;27.53;55.04;101510.28;5053928;28;20435;-74
2022/08/18 11:48:34;;;;;;;4.00;1.90;;;;;;;28.72;48.62;101513.69;5053856;28;20535;-75
2022/08/18 11:51:07;;;;;;;5.22;1.92;;;;;;;30.33;47.61;101496.78;5053903;28;20163;-74
2022/08/18 11:53:48;;;;;;;4.40;1.77;;;;;;;31.69;42.67;101495.06;5053836;28;20103;-76
2022/08/18 11:56:16;;;;;;;3.65;1.90;;;;;;;32.52;40.58;101503.44;5053734;28;20445;-75
2022/08/18 11:58:44;;;;;;;3.28;1.80;;;;;;;33.13;39.62;101495.59;5053831;28;20033;-75
2022/08/18 12:01:31;;;;;;;2.35;1.50;;;;;;;33.38;39.09;101492.84;5053619;28;20029;-75